createdAt,value
2017-01-25T00:00:37.428Z,0
2017-01-25T00:01:46.129Z,0
2017-01-25T00:02:55.282Z,0
2017-01-25T00:04:04.422Z,0
2017-01-25T00:05:13.380Z,0
2017-01-25T00:06:22.526Z,0
2017-01-25T00:07:31.644Z,0
2017-01-25T00:08:40.362Z,0
2017-01-25T00:09:49.508Z,0
2017-01-25T00:10:58.882Z,0
2017-01-25T00:12:08.016Z,0
2017-01-25T00:13:16.716Z,0
2017-01-25T00:14:25.486Z,0
2017-01-25T00:15:34.203Z,0
2017-01-25T00:16:43.153Z,0
2017-01-25T00:17:52.269Z,0
2017-01-25T00:19:00.971Z,0
2017-01-25T00:20:10.081Z,0
2017-01-25T00:21:18.834Z,0
2017-01-25T00:22:28.231Z,0
2017-01-25T00:23:37.357Z,0
2017-01-25T00:24:46.075Z,0
2017-01-25T00:25:54.778Z,0
2017-01-25T00:27:03.479Z,0
2017-01-25T00:28:12.432Z,0
2017-01-25T00:29:21.141Z,0
2017-01-25T00:30:29.837Z,0
2017-01-25T00:31:38.652Z,0
2017-01-25T00:32:47.372Z,0
2017-01-25T00:33:56.349Z,0
2017-01-25T00:35:05.145Z,0
2017-01-25T00:36:13.874Z,0
2017-01-25T00:37:22.584Z,0
2017-01-25T00:38:31.285Z,0
2017-01-25T00:39:40.250Z,0
2017-01-25T00:40:48.958Z,0
2017-01-25T00:41:57.718Z,0
2017-01-25T00:43:06.836Z,0
2017-01-25T00:44:15.562Z,0
2017-01-25T00:45:24.963Z,0
2017-01-25T00:46:34.091Z,0
2017-01-25T00:47:43.231Z,0
2017-01-25T00:48:52.352Z,0
2017-01-25T00:50:01.060Z,0
2017-01-25T00:51:10.423Z,0
2017-01-25T00:52:19.150Z,0
2017-01-25T00:53:28.335Z,0
2017-01-25T00:54:37.123Z,0
2017-01-25T00:55:45.830Z,0
2017-01-25T00:56:55.297Z,0
2017-01-25T00:58:04.029Z,0
2017-01-25T00:59:12.717Z,0
2017-01-25T01:00:21.811Z,0
2017-01-25T01:01:30.520Z,0
2017-01-25T01:02:39.528Z,0
2017-01-25T01:03:48.311Z,0
2017-01-25T01:04:57.074Z,0
2017-01-25T01:06:05.897Z,0
2017-01-25T01:07:14.599Z,0
2017-01-25T01:08:23.655Z,0
2017-01-25T01:09:32.780Z,0
2017-01-25T01:10:41.500Z,0
2017-01-25T01:11:50.205Z,0
2017-01-25T01:12:59.315Z,0
2017-01-25T01:14:08.459Z,0
2017-01-25T01:15:17.599Z,0
2017-01-25T01:16:26.314Z,0
2017-01-25T01:17:35.840Z,0
2017-01-25T01:18:44.566Z,0
2017-01-25T01:19:53.523Z,0
2017-01-25T01:21:02.238Z,0
2017-01-25T01:22:11.078Z,0
2017-01-25T01:23:19.834Z,0
2017-01-25T01:24:28.705Z,0
2017-01-25T01:25:37.711Z,0
2017-01-25T01:26:46.862Z,0
2017-01-25T01:27:55.974Z,0
2017-01-25T01:29:04.671Z,0
2017-01-25T01:30:13.377Z,0
2017-01-25T01:31:22.792Z,0
2017-01-25T01:32:31.938Z,0
2017-01-25T01:33:40.635Z,0
2017-01-25T01:34:49.368Z,0
2017-01-25T01:35:58.476Z,0
2017-01-25T01:37:07.429Z,0
2017-01-25T01:38:16.548Z,0
2017-01-25T01:39:25.670Z,0
2017-01-25T01:40:34.377Z,0
2017-01-25T01:41:43.175Z,0
2017-01-25T01:42:52.123Z,0
2017-01-25T01:44:00.825Z,0
2017-01-25T01:45:09.994Z,0
2017-01-25T01:46:19.270Z,0
2017-01-25T01:47:27.985Z,0
2017-01-25T01:48:36.952Z,0
2017-01-25T01:49:45.693Z,0
2017-01-25T01:50:54.629Z,0
2017-01-25T01:52:03.345Z,0
2017-01-25T01:53:12.044Z,0
2017-01-25T01:54:21.399Z,0
2017-01-25T01:55:30.110Z,0
2017-01-25T01:56:38.813Z,0
2017-01-25T01:57:47.509Z,0
2017-01-25T01:58:56.702Z,0
2017-01-25T02:00:06.580Z,0
2017-01-25T02:01:15.278Z,0
2017-01-25T02:02:24.004Z,0
2017-01-25T02:03:32.738Z,0
2017-01-25T02:04:41.855Z,0
2017-01-25T02:05:51.276Z,0
2017-01-25T02:06:59.988Z,0
2017-01-25T02:08:08.709Z,0
2017-01-25T02:09:50.021Z,0
2017-01-25T02:10:59.867Z,0
2017-01-25T02:12:08.575Z,0
2017-01-25T02:13:17.695Z,0
2017-01-25T02:14:26.835Z,0
2017-01-25T02:15:35.957Z,0
2017-01-25T02:16:45.434Z,0
2017-01-25T02:17:54.126Z,0
2017-01-25T02:19:03.301Z,0
2017-01-25T02:20:12.000Z,0
2017-01-25T02:21:20.713Z,0
2017-01-25T02:22:30.078Z,0
2017-01-25T02:23:39.214Z,0
2017-01-25T02:24:47.929Z,0
2017-01-25T02:25:57.033Z,0
2017-01-25T02:27:06.144Z,0
2017-01-25T02:28:15.145Z,0
2017-01-25T02:29:24.668Z,0
2017-01-25T02:30:33.391Z,0
2017-01-25T02:31:42.512Z,0
2017-01-25T02:32:51.277Z,0
2017-01-25T02:34:00.641Z,0
2017-01-25T02:35:09.337Z,0
2017-01-25T02:36:18.050Z,0
2017-01-25T02:37:26.749Z,0
2017-01-25T02:38:35.866Z,0
2017-01-25T02:39:44.817Z,0
2017-01-25T02:40:53.581Z,0
2017-01-25T02:42:02.707Z,0
2017-01-25T02:43:11.415Z,0
2017-01-25T02:44:20.119Z,0
2017-01-25T02:45:29.086Z,0
2017-01-25T02:46:38.199Z,0
2017-01-25T02:47:46.936Z,0
2017-01-25T02:48:56.083Z,0
2017-01-25T02:50:05.215Z,0
2017-01-25T02:51:15.411Z,0
2017-01-25T02:52:24.534Z,0
2017-01-25T02:53:34.060Z,0
2017-01-25T02:54:42.761Z,0
2017-01-25T02:55:51.461Z,0
2017-01-25T02:57:00.427Z,0
2017-01-25T02:58:09.139Z,0
2017-01-25T02:59:18.293Z,0
2017-01-25T03:00:26.992Z,0
2017-01-25T03:01:35.977Z,0
2017-01-25T03:02:45.751Z,0
2017-01-25T03:03:54.852Z,0
2017-01-25T03:05:03.586Z,0
2017-01-25T03:06:12.293Z,0
2017-01-25T03:07:21.007Z,0
2017-01-25T03:08:29.971Z,0
2017-01-25T03:09:39.514Z,0
2017-01-25T03:10:48.647Z,0
2017-01-25T03:11:57.343Z,0
2017-01-25T03:13:06.452Z,0
2017-01-25T03:14:15.427Z,0
2017-01-25T03:15:24.548Z,0
2017-01-25T03:16:33.253Z,0
2017-01-25T03:17:41.985Z,0
2017-01-25T03:18:50.825Z,0
2017-01-25T03:20:00.185Z,0
2017-01-25T03:21:08.887Z,0
2017-01-25T03:22:17.577Z,0
2017-01-25T03:23:26.297Z,0
2017-01-25T03:24:35.002Z,0
2017-01-25T03:25:44.356Z,0
2017-01-25T03:26:53.051Z,0
2017-01-25T03:28:01.764Z,0
2017-01-25T03:29:10.511Z,0
2017-01-25T03:30:19.202Z,0
2017-01-25T03:31:28.160Z,0
2017-01-25T03:32:37.275Z,0
2017-01-25T03:33:45.997Z,0
2017-01-25T03:34:54.700Z,0
2017-01-25T03:36:03.793Z,0
2017-01-25T03:37:12.750Z,0
2017-01-25T03:38:21.932Z,0
2017-01-25T03:39:31.868Z,0
2017-01-25T03:40:41.043Z,0
2017-01-25T03:41:49.741Z,0
2017-01-25T03:42:59.115Z,0
2017-01-25T03:44:08.640Z,0
2017-01-25T03:45:17.355Z,0
2017-01-25T03:46:26.069Z,0
2017-01-25T03:47:35.174Z,0
2017-01-25T03:48:44.289Z,0
2017-01-25T03:49:53.406Z,0
2017-01-25T03:51:02.119Z,0
2017-01-25T03:52:11.245Z,0
2017-01-25T03:53:20.368Z,0
2017-01-25T03:54:29.751Z,0
2017-01-25T03:55:38.869Z,0
2017-01-25T03:56:47.993Z,0
2017-01-25T03:57:56.700Z,0
2017-01-25T03:59:05.412Z,0
2017-01-25T04:00:15.195Z,0
2017-01-25T04:01:24.284Z,0
2017-01-25T04:02:33.824Z,0
2017-01-25T04:03:42.972Z,0
2017-01-25T04:04:52.086Z,0
2017-01-25T04:06:01.842Z,0
2017-01-25T04:07:11.903Z,0
2017-01-25T04:08:21.013Z,0
2017-01-25T04:09:30.534Z,0
2017-01-25T04:10:39.628Z,0
2017-01-25T04:11:49.359Z,0
2017-01-25T04:12:58.508Z,0
2017-01-25T04:14:08.815Z,0
2017-01-25T04:15:17.928Z,0
2017-01-25T04:16:26.608Z,0
2017-01-25T04:17:35.686Z,0
2017-01-25T04:18:45.166Z,0
2017-01-25T04:19:54.706Z,0
2017-01-25T04:21:03.815Z,0
2017-01-25T04:22:12.968Z,0
2017-01-25T04:23:22.326Z,0
2017-01-25T04:24:31.816Z,0
2017-01-25T04:25:41.383Z,0
2017-01-25T04:26:50.080Z,0
2017-01-25T04:27:59.168Z,0
2017-01-25T04:29:08.593Z,0
2017-01-25T04:30:17.691Z,0
2017-01-25T04:31:26.399Z,0
2017-01-25T04:32:35.093Z,0
2017-01-25T04:33:44.199Z,0
2017-01-25T04:34:53.690Z,0
2017-01-25T04:36:03.191Z,0
2017-01-25T04:37:12.696Z,0
2017-01-25T04:38:21.416Z,0
2017-01-25T04:39:30.964Z,0
2017-01-25T04:40:40.309Z,0
2017-01-25T04:41:49.032Z,0
2017-01-25T04:42:58.530Z,0
2017-01-25T04:44:08.061Z,0
2017-01-25T04:45:17.570Z,0
2017-01-25T04:46:27.357Z,0
2017-01-25T04:47:36.447Z,0
2017-01-25T04:48:45.127Z,0
2017-01-25T04:49:55.463Z,0
2017-01-25T04:51:04.157Z,0
2017-01-25T04:52:13.913Z,0
2017-01-25T04:53:23.456Z,0
2017-01-25T04:54:32.187Z,0
2017-01-25T04:55:41.718Z,0
2017-01-25T04:56:50.899Z,0
2017-01-25T04:58:01.039Z,0
2017-01-25T04:59:10.947Z,0
2017-01-25T05:00:21.238Z,0
2017-01-25T05:01:31.519Z,0
2017-01-25T05:02:41.433Z,0
2017-01-25T05:03:51.972Z,0
2017-01-25T05:05:01.957Z,0
2017-01-25T05:06:11.848Z,0
2017-01-25T05:07:22.158Z,0
2017-01-25T05:08:32.526Z,0
2017-01-25T05:09:43.093Z,0
2017-01-25T05:10:53.468Z,0
2017-01-25T05:12:03.771Z,0
2017-01-25T05:13:14.061Z,0
2017-01-25T05:14:24.342Z,0
2017-01-25T05:15:34.141Z,0
2017-01-25T05:16:44.044Z,0
2017-01-25T05:17:54.328Z,0
2017-01-25T05:19:04.888Z,0
2017-01-25T05:20:15.225Z,0
2017-01-25T05:21:25.958Z,0
2017-01-25T05:22:35.830Z,0
2017-01-25T05:23:46.186Z,0
2017-01-25T05:24:56.115Z,0
2017-01-25T05:26:06.426Z,0
2017-01-25T05:27:16.585Z,0
2017-01-25T05:28:26.885Z,0
2017-01-25T05:29:37.164Z,0
2017-01-25T05:30:47.489Z,0
2017-01-25T05:31:57.418Z,0
2017-01-25T05:33:07.568Z,0
2017-01-25T05:34:17.529Z,0
2017-01-25T05:35:27.850Z,0
2017-01-25T05:36:38.300Z,0
2017-01-25T05:37:48.606Z,0
2017-01-25T05:38:59.148Z,0
2017-01-25T05:40:09.469Z,0
2017-01-25T05:41:19.876Z,0
2017-01-25T05:42:30.174Z,0
2017-01-25T05:43:40.503Z,0
2017-01-25T05:44:51.076Z,0
2017-01-25T05:46:01.411Z,0
2017-01-25T05:47:11.707Z,0
2017-01-25T05:48:22.115Z,0
2017-01-25T05:49:32.144Z,0
2017-01-25T05:50:42.680Z,0
2017-01-25T05:51:52.995Z,0
2017-01-25T05:53:03.361Z,0
2017-01-25T05:54:13.241Z,0
2017-01-25T05:55:23.552Z,0
2017-01-25T05:56:34.145Z,0
2017-01-25T05:57:44.439Z,0
2017-01-25T05:58:54.893Z,0
2017-01-25T06:00:05.244Z,0
2017-01-25T06:01:15.557Z,0
2017-01-25T06:02:26.092Z,0
2017-01-25T06:03:36.398Z,0
2017-01-25T06:04:46.702Z,0
2017-01-25T06:05:57.038Z,0
2017-01-25T06:07:07.392Z,0
2017-01-25T06:08:18.051Z,0
2017-01-25T06:09:28.351Z,0
2017-01-25T06:10:38.654Z,0
2017-01-25T06:11:49.095Z,0
2017-01-25T06:12:59.428Z,0
2017-01-25T06:14:10.027Z,0
2017-01-25T06:15:19.943Z,0
2017-01-25T06:16:30.272Z,0
2017-01-25T06:17:40.175Z,0
2017-01-25T06:18:50.484Z,0
2017-01-25T06:20:01.041Z,0
2017-01-25T06:21:11.351Z,0
2017-01-25T06:22:21.650Z,0
2017-01-25T06:23:31.951Z,0
2017-01-25T06:24:42.375Z,0
2017-01-25T06:25:52.931Z,0
2017-01-25T06:27:03.281Z,0
2017-01-25T06:28:13.600Z,0
2017-01-25T06:29:23.893Z,0
2017-01-25T06:30:34.372Z,0
2017-01-25T06:31:44.935Z,0
2017-01-25T06:32:55.295Z,0
2017-01-25T06:34:05.621Z,0
2017-01-25T06:35:15.561Z,0
2017-01-25T06:36:25.868Z,0
2017-01-25T06:37:36.440Z,0
2017-01-25T06:38:46.361Z,0
2017-01-25T06:39:56.718Z,0
2017-01-25T06:41:07.019Z,0
2017-01-25T06:42:17.317Z,0
2017-01-25T06:43:27.929Z,0
2017-01-25T06:44:38.209Z,0
2017-01-25T06:45:48.106Z,0
2017-01-25T06:46:58.419Z,0
2017-01-25T06:48:08.388Z,0
2017-01-25T06:49:19.005Z,0
2017-01-25T06:50:29.359Z,0
2017-01-25T06:51:39.671Z,0
2017-01-25T06:52:50.040Z,0
2017-01-25T06:54:00.472Z,0
2017-01-25T06:55:11.029Z,0
2017-01-25T06:56:21.381Z,5
2017-01-25T06:57:31.771Z,5
2017-01-25T06:58:42.086Z,5
2017-01-25T06:59:52.081Z,5
2017-01-25T07:01:02.665Z,5
2017-01-25T07:02:12.976Z,5
2017-01-25T07:03:23.285Z,5
2017-01-25T07:04:33.602Z,5
2017-01-25T07:05:43.931Z,10
2017-01-25T07:06:54.470Z,10
2017-01-25T07:08:04.808Z,10
2017-01-25T07:09:15.148Z,10
2017-01-25T07:10:25.437Z,10
2017-01-25T07:11:35.774Z,15
2017-01-25T07:12:45.957Z,15
2017-01-25T07:13:56.312Z,15
2017-01-25T07:15:06.638Z,15
2017-01-25T07:16:16.652Z,20
2017-01-25T07:17:26.946Z,20
2017-01-25T07:18:37.506Z,25
2017-01-25T07:19:47.819Z,25
2017-01-25T07:20:57.326Z,25
2017-01-25T07:22:07.714Z,25
2017-01-25T07:23:17.634Z,30
2017-01-25T07:24:28.187Z,30
2017-01-25T07:25:38.536Z,35
2017-01-25T07:26:48.855Z,35
2017-01-25T07:27:58.481Z,40
2017-01-25T07:29:08.783Z,40
2017-01-25T07:30:19.320Z,40
2017-01-25T07:31:29.641Z,45
2017-01-25T07:32:39.560Z,45
2017-01-25T07:33:49.882Z,45
2017-01-25T07:35:00.179Z,50
2017-01-25T07:36:10.732Z,50
2017-01-25T07:37:21.043Z,50
2017-01-25T07:38:31.460Z,50
2017-01-25T07:39:41.794Z,55
2017-01-25T07:40:52.100Z,55
2017-01-25T07:42:01.474Z,55
2017-01-25T07:43:11.888Z,60
2017-01-25T07:44:21.400Z,65
2017-01-25T07:45:31.316Z,65
2017-01-25T07:46:41.679Z,70
2017-01-25T07:47:52.223Z,75
2017-01-25T07:49:02.166Z,75
2017-01-25T07:50:11.738Z,80
2017-01-25T07:51:21.662Z,80
2017-01-25T07:52:31.612Z,80
2017-01-25T07:53:42.651Z,85
2017-01-25T07:54:52.579Z,85
2017-01-25T07:56:02.526Z,90
2017-01-25T07:57:12.863Z,90
2017-01-25T07:58:23.245Z,95
2017-01-25T07:59:33.962Z,95
2017-01-25T08:00:44.309Z,95
2017-01-25T08:01:54.690Z,100
2017-01-25T08:03:04.611Z,105
2017-01-25T08:04:14.542Z,110
2017-01-25T08:05:24.747Z,110
2017-01-25T08:06:34.688Z,115
2017-01-25T08:07:45.020Z,110
2017-01-25T08:08:54.941Z,110
2017-01-25T08:10:05.276Z,110
2017-01-25T08:11:15.908Z,110
2017-01-25T08:12:26.244Z,105
2017-01-25T08:13:36.325Z,105
2017-01-25T08:14:46.265Z,110
2017-01-25T08:15:56.214Z,105
2017-01-25T08:17:06.986Z,105
2017-01-25T08:18:17.314Z,110
2017-01-25T08:19:27.282Z,110
2017-01-25T08:20:37.634Z,110
2017-01-25T08:21:47.988Z,110
2017-01-25T08:22:58.569Z,115
2017-01-25T08:24:08.497Z,115
2017-01-25T08:25:18.856Z,120
2017-01-25T08:26:29.194Z,125
2017-01-25T08:27:39.582Z,120
2017-01-25T08:28:50.215Z,125
2017-01-25T08:30:00.250Z,130
2017-01-25T08:31:10.669Z,125
2017-01-25T08:32:21.008Z,125
2017-01-25T08:33:31.400Z,135
2017-01-25T08:34:41.978Z,135
2017-01-25T08:35:51.931Z,130
2017-01-25T08:37:02.282Z,130
2017-01-25T08:38:11.838Z,125
2017-01-25T08:39:22.183Z,125
2017-01-25T08:40:32.950Z,125
2017-01-25T08:41:42.935Z,135
2017-01-25T08:42:53.268Z,135
2017-01-25T08:44:03.625Z,140
2017-01-25T08:45:13.610Z,145
2017-01-25T08:46:24.267Z,150
2017-01-25T08:47:34.612Z,160
2017-01-25T08:48:44.975Z,170
2017-01-25T08:49:55.318Z,180
2017-01-25T08:51:05.662Z,190
2017-01-25T08:52:16.264Z,195
2017-01-25T08:53:26.614Z,195
2017-01-25T08:54:37.011Z,190
2017-01-25T08:55:47.351Z,190
2017-01-25T08:56:57.312Z,200
2017-01-25T08:58:08.027Z,210
2017-01-25T08:59:18.387Z,225
2017-01-25T09:00:28.746Z,240
2017-01-25T09:01:38.683Z,235
2017-01-25T09:02:49.047Z,225
2017-01-25T09:03:59.688Z,210
2017-01-25T09:05:09.624Z,200
2017-01-25T09:06:19.974Z,210
2017-01-25T09:07:30.362Z,215
2017-01-25T09:08:40.699Z,215
2017-01-25T09:09:50.068Z,210
2017-01-25T09:11:00.554Z,210
2017-01-25T09:12:10.899Z,215
2017-01-25T09:13:21.272Z,230
2017-01-25T09:14:31.767Z,235
2017-01-25T09:15:42.354Z,240
2017-01-25T09:16:52.284Z,245
2017-01-25T09:18:02.682Z,245
2017-01-25T09:19:13.007Z,240
2017-01-25T09:20:23.355Z,235
2017-01-25T09:21:33.941Z,240
2017-01-25T09:22:43.876Z,240
2017-01-25T09:23:54.226Z,245
2017-01-25T09:25:04.168Z,250
2017-01-25T09:26:14.504Z,250
2017-01-25T09:27:25.093Z,240
2017-01-25T09:28:35.450Z,240
2017-01-25T09:29:45.802Z,235
2017-01-25T09:30:56.153Z,230
2017-01-25T09:32:06.530Z,245
2017-01-25T09:33:16.757Z,250
2017-01-25T09:34:26.763Z,250
2017-01-25T09:35:37.130Z,255
2017-01-25T09:36:47.516Z,260
2017-01-25T09:37:57.462Z,260
2017-01-25T09:39:08.244Z,260
2017-01-25T09:40:18.180Z,255
2017-01-25T09:41:28.532Z,255
2017-01-25T09:42:38.490Z,255
2017-01-25T09:43:48.430Z,255
2017-01-25T09:44:59.018Z,255
2017-01-25T09:46:09.400Z,255
2017-01-25T09:47:19.345Z,260
2017-01-25T09:48:29.681Z,265
2017-01-25T09:49:39.656Z,270
2017-01-25T09:50:50.296Z,275
2017-01-25T09:52:00.656Z,280
2017-01-25T09:53:10.608Z,275
2017-01-25T09:54:20.961Z,270
2017-01-25T09:55:31.390Z,270
2017-01-25T09:56:41.602Z,265
2017-01-25T09:57:51.966Z,260
2017-01-25T09:59:02.330Z,260
2017-01-25T10:00:12.694Z,265
2017-01-25T10:01:23.051Z,265
2017-01-25T10:02:33.659Z,270
2017-01-25T10:03:44.023Z,275
2017-01-25T10:04:54.065Z,280
2017-01-25T10:06:04.003Z,285
2017-01-25T10:07:13.942Z,295
2017-01-25T10:08:24.140Z,300
2017-01-25T10:09:34.498Z,305
2017-01-25T10:10:44.432Z,300
2017-01-25T10:11:54.351Z,300
2017-01-25T10:13:04.322Z,300
2017-01-25T10:14:14.662Z,305
2017-01-25T10:15:25.011Z,305
2017-01-25T10:16:34.960Z,310
2017-01-25T10:17:45.310Z,310
2017-01-25T10:18:55.287Z,305
2017-01-25T10:20:05.936Z,305
2017-01-25T10:21:16.290Z,305
2017-01-25T10:22:26.225Z,300
2017-01-25T10:23:36.156Z,295
2017-01-25T10:24:46.510Z,295
2017-01-25T10:25:57.135Z,290
2017-01-25T10:27:07.501Z,285
2017-01-25T10:28:17.856Z,280
2017-01-25T10:29:28.231Z,280
2017-01-25T10:30:38.582Z,280
2017-01-25T10:31:48.794Z,275
2017-01-25T10:32:59.305Z,275
2017-01-25T10:34:09.657Z,285
2017-01-25T10:35:20.030Z,300
2017-01-25T10:36:30.434Z,300
2017-01-25T10:37:41.048Z,305
2017-01-25T10:38:51.013Z,310
2017-01-25T10:40:01.458Z,310
2017-01-25T10:41:11.799Z,310
2017-01-25T10:42:22.165Z,305
2017-01-25T10:43:32.783Z,300
2017-01-25T10:44:43.246Z,300
2017-01-25T10:45:52.775Z,300
2017-01-25T10:47:02.731Z,300
2017-01-25T10:48:13.066Z,300
2017-01-25T10:49:23.715Z,300
2017-01-25T10:50:34.065Z,295
2017-01-25T10:51:44.023Z,300
2017-01-25T10:52:54.345Z,300
2017-01-25T10:54:04.282Z,300
2017-01-25T10:55:14.941Z,305
2017-01-25T10:56:25.320Z,315
2017-01-25T10:57:35.766Z,325
2017-01-25T10:58:46.186Z,330
2017-01-25T10:59:56.147Z,340
2017-01-25T11:01:06.784Z,355
2017-01-25T11:02:17.298Z,365
2017-01-25T11:03:27.773Z,370
2017-01-25T11:04:38.142Z,375
2017-01-25T11:05:48.493Z,370
2017-01-25T11:06:59.091Z,365
2017-01-25T11:08:09.487Z,365
2017-01-25T11:09:19.832Z,365
2017-01-25T11:10:30.217Z,360
2017-01-25T11:11:40.606Z,360
2017-01-25T11:12:51.216Z,365
2017-01-25T11:14:01.598Z,370
2017-01-25T11:15:11.957Z,370
2017-01-25T11:16:22.362Z,370
2017-01-25T11:17:32.718Z,370
2017-01-25T11:18:43.321Z,370
2017-01-25T11:19:53.669Z,375
2017-01-25T11:21:04.039Z,370
2017-01-25T11:22:13.593Z,370
2017-01-25T11:23:23.978Z,370
2017-01-25T11:24:34.589Z,370
2017-01-25T11:25:44.961Z,365
2017-01-25T11:26:55.341Z,365
2017-01-25T11:28:05.723Z,365
2017-01-25T11:29:16.074Z,365
2017-01-25T11:30:26.696Z,360
2017-01-25T11:31:37.042Z,360
2017-01-25T11:32:47.416Z,360
2017-01-25T11:33:57.372Z,355
2017-01-25T11:35:07.317Z,345
2017-01-25T11:36:17.924Z,345
2017-01-25T11:37:28.282Z,350
2017-01-25T11:38:38.223Z,370
2017-01-25T11:39:48.569Z,380
2017-01-25T11:40:58.934Z,385
2017-01-25T11:42:09.232Z,390
2017-01-25T11:43:19.667Z,395
2017-01-25T11:44:30.009Z,400
2017-01-25T11:45:39.972Z,405
2017-01-25T11:46:49.905Z,410
2017-01-25T11:48:00.103Z,415
2017-01-25T11:49:10.547Z,425
2017-01-25T11:50:20.895Z,435
2017-01-25T11:51:30.833Z,435
2017-01-25T11:52:41.182Z,430
2017-01-25T11:53:51.473Z,420
2017-01-25T11:55:01.817Z,415
2017-01-25T11:56:11.759Z,415
2017-01-25T11:57:22.122Z,415
2017-01-25T11:58:32.472Z,410
2017-01-25T11:59:43.168Z,410
2017-01-25T12:00:53.530Z,410
2017-01-25T12:02:03.720Z,405
2017-01-25T12:03:13.717Z,400
2017-01-25T12:04:24.339Z,395
2017-01-25T12:05:34.536Z,390
2017-01-25T12:06:44.907Z,390
2017-01-25T12:07:55.279Z,385
2017-01-25T12:09:05.627Z,385
2017-01-25T12:10:15.993Z,385
2017-01-25T12:11:26.759Z,385
2017-01-25T12:12:37.108Z,385
2017-01-25T12:13:47.439Z,380
2017-01-25T12:14:57.781Z,385
2017-01-25T12:16:07.930Z,380
2017-01-25T12:17:18.583Z,380
2017-01-25T12:18:28.513Z,380
2017-01-25T12:19:38.941Z,385
2017-01-25T12:20:48.897Z,400
2017-01-25T12:21:59.599Z,420
2017-01-25T12:23:10.196Z,440
2017-01-25T12:24:20.732Z,450
2017-01-25T12:25:31.108Z,445
2017-01-25T12:26:41.475Z,435
2017-01-25T12:27:51.846Z,425
2017-01-25T12:29:02.452Z,415
2017-01-25T12:30:12.812Z,410
2017-01-25T12:31:23.187Z,410
2017-01-25T12:32:33.612Z,405
2017-01-25T12:33:43.982Z,405
2017-01-25T12:34:54.610Z,410
2017-01-25T12:36:04.967Z,410
2017-01-25T12:37:15.375Z,410
2017-01-25T12:38:25.728Z,410
2017-01-25T12:39:36.082Z,410
2017-01-25T12:40:46.737Z,410
2017-01-25T12:41:57.104Z,410
2017-01-25T12:43:07.485Z,410
2017-01-25T12:44:17.853Z,405
2017-01-25T12:45:27.837Z,405
2017-01-25T12:46:38.459Z,400
2017-01-25T12:47:48.822Z,395
2017-01-25T12:48:59.355Z,395
2017-01-25T12:50:09.713Z,395
2017-01-25T12:51:20.088Z,395
2017-01-25T12:52:30.287Z,395
2017-01-25T12:53:40.694Z,390
2017-01-25T12:54:51.060Z,385
2017-01-25T12:56:01.565Z,375
2017-01-25T12:57:11.942Z,375
2017-01-25T12:58:22.142Z,375
2017-01-25T12:59:32.137Z,375
2017-01-25T13:00:42.214Z,375
2017-01-25T13:01:52.587Z,375
2017-01-25T13:03:02.935Z,365
2017-01-25T13:04:13.169Z,360
2017-01-25T13:05:23.126Z,350
2017-01-25T13:06:33.495Z,350
2017-01-25T13:07:43.883Z,345
2017-01-25T13:08:54.277Z,345
2017-01-25T13:10:04.903Z,345
2017-01-25T13:11:15.238Z,345
2017-01-25T13:12:25.249Z,340
2017-01-25T13:13:35.588Z,330
2017-01-25T13:14:45.973Z,325
2017-01-25T13:15:56.578Z,320
2017-01-25T13:17:07.048Z,310
2017-01-25T13:18:17.413Z,300
2017-01-25T13:19:27.876Z,300
2017-01-25T13:20:38.232Z,295
2017-01-25T13:21:48.823Z,295
2017-01-25T13:22:59.174Z,295
2017-01-25T13:24:09.608Z,295
2017-01-25T13:25:19.958Z,290
2017-01-25T13:26:30.305Z,290
2017-01-25T13:27:40.905Z,290
2017-01-25T13:28:51.255Z,290
2017-01-25T13:30:01.603Z,290
2017-01-25T13:31:11.966Z,285
2017-01-25T13:32:22.491Z,285
2017-01-25T13:33:33.096Z,290
2017-01-25T13:34:43.219Z,295
2017-01-25T13:35:53.656Z,290
2017-01-25T13:37:04.023Z,280
2017-01-25T13:38:14.488Z,280
2017-01-25T13:39:25.089Z,280
2017-01-25T13:40:35.452Z,280
2017-01-25T13:41:45.863Z,275
2017-01-25T13:42:56.205Z,280
2017-01-25T13:44:06.575Z,280
2017-01-25T13:45:17.225Z,285
2017-01-25T13:46:27.583Z,280
2017-01-25T13:47:37.971Z,280
2017-01-25T13:48:48.334Z,275
2017-01-25T13:49:58.691Z,275
2017-01-25T13:51:08.924Z,275
2017-01-25T13:52:19.299Z,275
2017-01-25T13:53:29.656Z,270
2017-01-25T13:54:39.643Z,270
2017-01-25T13:55:49.983Z,270
2017-01-25T13:57:00.647Z,270
2017-01-25T13:58:11.007Z,270
2017-01-25T13:59:20.957Z,275
2017-01-25T14:00:31.356Z,265
2017-01-25T14:01:41.692Z,255
2017-01-25T14:02:52.391Z,245
2017-01-25T14:04:02.760Z,245
2017-01-25T14:05:13.132Z,235
2017-01-25T14:06:23.495Z,230
2017-01-25T14:07:33.865Z,225
2017-01-25T14:08:44.480Z,220
2017-01-25T14:09:54.828Z,220
2017-01-25T14:11:05.188Z,225
2017-01-25T14:12:15.553Z,220
2017-01-25T14:13:25.925Z,215
2017-01-25T14:14:36.600Z,210
2017-01-25T14:15:46.536Z,205
2017-01-25T14:16:56.534Z,205
2017-01-25T14:18:06.908Z,205
2017-01-25T14:19:17.281Z,205
2017-01-25T14:20:27.907Z,195
2017-01-25T14:21:38.301Z,190
2017-01-25T14:22:48.669Z,190
2017-01-25T14:23:59.064Z,190
2017-01-25T14:25:09.417Z,190
2017-01-25T14:26:20.088Z,190
2017-01-25T14:27:30.151Z,190
2017-01-25T14:28:40.135Z,185
2017-01-25T14:29:50.536Z,190
2017-01-25T14:31:00.906Z,185
2017-01-25T14:32:11.560Z,180
2017-01-25T14:33:21.917Z,175
2017-01-25T14:34:32.272Z,170
2017-01-25T14:35:42.234Z,165
2017-01-25T14:36:52.201Z,165
2017-01-25T14:38:02.883Z,160
2017-01-25T14:39:13.253Z,160
2017-01-25T14:40:23.605Z,155
2017-01-25T14:41:33.774Z,160
2017-01-25T14:42:44.148Z,155
2017-01-25T14:43:54.816Z,150
2017-01-25T14:45:04.776Z,145
2017-01-25T14:46:14.900Z,145
2017-01-25T14:47:25.278Z,140
2017-01-25T14:48:35.655Z,135
2017-01-25T14:49:46.319Z,135
2017-01-25T14:50:56.304Z,135
2017-01-25T14:52:06.684Z,130
2017-01-25T14:53:16.212Z,125
2017-01-25T14:54:26.570Z,120
2017-01-25T14:55:36.891Z,115
2017-01-25T14:56:47.261Z,115
2017-01-25T14:57:57.644Z,105
2017-01-25T14:59:08.004Z,100
2017-01-25T15:00:17.964Z,100
2017-01-25T15:01:28.221Z,95
2017-01-25T15:02:37.883Z,95
2017-01-25T15:03:47.956Z,95
2017-01-25T15:04:58.302Z,90
2017-01-25T15:06:08.658Z,85
2017-01-25T15:07:19.310Z,80
2017-01-25T15:08:29.396Z,75
2017-01-25T15:09:39.784Z,70
2017-01-25T15:10:50.178Z,70
2017-01-25T15:12:00.557Z,65
2017-01-25T15:13:11.266Z,60
2017-01-25T15:14:21.697Z,55
2017-01-25T15:15:32.048Z,55
2017-01-25T15:16:42.401Z,50
2017-01-25T15:17:52.451Z,50
2017-01-25T15:19:03.115Z,45
2017-01-25T15:20:13.457Z,45
2017-01-25T15:21:23.843Z,45
2017-01-25T15:22:34.199Z,45
2017-01-25T15:23:44.567Z,40
2017-01-25T15:24:54.875Z,40
2017-01-25T15:26:04.838Z,40
2017-01-25T15:27:15.215Z,35
2017-01-25T15:28:25.580Z,35
2017-01-25T15:29:35.977Z,30
2017-01-25T15:30:46.766Z,30
2017-01-25T15:31:57.104Z,30
2017-01-25T15:33:07.459Z,25
2017-01-25T15:34:17.404Z,25
2017-01-25T15:35:27.924Z,25
2017-01-25T15:36:38.182Z,20
2017-01-25T15:37:48.557Z,20
2017-01-25T15:38:58.928Z,20
2017-01-25T15:40:09.305Z,20
2017-01-25T15:41:19.667Z,15
2017-01-25T15:42:30.006Z,15
2017-01-25T15:43:40.374Z,15
2017-01-25T15:44:50.731Z,15
2017-01-25T15:46:01.100Z,10
2017-01-25T15:47:11.067Z,10
2017-01-25T15:48:21.380Z,10
2017-01-25T15:49:31.733Z,10
2017-01-25T15:50:41.695Z,10
2017-01-25T15:51:52.059Z,5
2017-01-25T15:53:02.049Z,5
2017-01-25T15:54:12.720Z,5
2017-01-25T15:55:23.087Z,5
2017-01-25T15:56:33.484Z,5
2017-01-25T15:57:43.847Z,5
2017-01-25T15:58:54.248Z,0
2017-01-25T16:00:04.895Z,0
2017-01-25T16:01:14.858Z,0
2017-01-25T16:02:25.215Z,0
2017-01-25T16:03:35.647Z,0
2017-01-25T16:04:46.025Z,0
2017-01-25T16:05:56.691Z,0
2017-01-25T16:07:06.689Z,0
2017-01-25T16:08:16.666Z,0
2017-01-25T16:09:26.772Z,0
2017-01-25T16:10:37.148Z,0
2017-01-25T16:11:47.832Z,0
2017-01-25T16:12:58.192Z,0
2017-01-25T16:14:08.716Z,0
2017-01-25T16:15:19.089Z,0
2017-01-25T16:16:29.492Z,0
2017-01-25T16:17:40.164Z,0
2017-01-25T16:18:50.530Z,0
2017-01-25T16:20:00.918Z,0
2017-01-25T16:21:10.866Z,0
2017-01-25T16:22:21.220Z,0
2017-01-25T16:23:31.500Z,0
2017-01-25T16:24:41.907Z,0
2017-01-25T16:25:51.875Z,0
2017-01-25T16:27:01.865Z,0
2017-01-25T16:28:12.260Z,0
2017-01-25T16:29:22.948Z,0
2017-01-25T16:30:32.963Z,0
2017-01-25T16:31:43.322Z,0
2017-01-25T16:32:53.682Z,0
2017-01-25T16:34:04.128Z,0
2017-01-25T16:35:14.841Z,0
2017-01-25T16:36:25.227Z,0
2017-01-25T16:37:35.215Z,0
2017-01-25T16:38:45.156Z,0
2017-01-25T16:39:55.530Z,0